Observations for BREST GUIPAVAS, France (LFRB)

LFRB 171900Z AUTO 26005KT 230V290 CAVOK 17/11 Q1019 NOSIG   
LFRB 171830Z AUTO 25007KT CAVOK 18/10 Q1019 NOSIG   
LFRB 171800Z AUTO 26008KT 220V300 9999 FEW034 SCT040 20/11 Q1019 NOSIG  
LFRB 171730Z AUTO 24010KT 9999 BKN038 20/11 Q1019 NOSIG 
LFRB 171700Z AUTO 24010KT 190V270 9999 BKN042 20/10 Q1019 NOSIG 
LFRB 171630Z AUTO 25007KT 220V300 9999 BKN040 20/10 Q1019 NOSIG 
LFRB 171600Z AUTO 25009KT 220V280 9999 FEW034 BKN040 BKN054 21/11 Q1019 NOSIG   
LFRB 171530Z AUTO 25010KT 210V300 9999 BKN037 OVC047 21/10 Q1019 NOSIG  
LFRB 171500Z AUTO 26009KT 220V290 9999 FEW040 OVC056 20/10 Q1019 NOSIG  
LFRB 171430Z AUTO 22008KT 180V280 9999 FEW039 OVC056 20/10 Q1019 NOSIG  
LFRB 171400Z AUTO 25008KT 200V300 9999 SCT039 SCT046 OVC056 20/11 Q1019 NOSIG   
LFRB 171330Z AUTO 24011KT 9999 FEW045 SCT058 21/09 Q1019 NOSIG  
LFRB 171300Z AUTO 25009KT 210V300 9999 FEW042 BKN049 BKN062 21/10 Q1019 NOSIG   
LFRB 171230Z AUTO 25009KT 210V290 9999 BKN041 OVC058 21/11 Q1019 NOSIG  
LFRB 171200Z AUTO 26009KT 230V310 9999 BKN043 BKN052 OVC062 21/10 Q1019 NOSIG   
LFRB 171130Z AUTO 25010KT 230V290 9999 SCT037 BKN043 OVC056 19/11 Q1019 NOSIG   
LFRB 171100Z AUTO 26008KT 230V300 9999 SCT035 BKN046 OVC058 20/11 Q1019 TEMPO SHRA  
LFRB 171030Z AUTO 26007KT 230V290 9999 SCT031 BKN041 OVC048 19/12 Q1019 TEMPO SHRA  
LFRB 171000Z AUTO 28007KT 250V310 9999 FEW023 SCT039 BKN047 19/11 Q1019 TEMPO SHRA  
LFRB 170930Z AUTO 30007KT 270V330 9999 SCT022 BKN043 OVC058 19/13 Q1019 TEMPO SHRA  
LFRB 170900Z AUTO 29008KT 9999 BKN018 BKN032 BKN040 18/13 Q1019 TEMPO SHRA  
LFRB 170830Z AUTO 25007KT 9999 BKN016 BKN024 BKN031 17/14 Q1019 TEMPO SHRA  
LFRB 170800Z AUTO 25007KT 9999 BKN024 BKN029 BKN038 17/14 Q1019 TEMPO SHRA  
LFRB 170730Z AUTO 24005KT CAVOK 17/13 Q1019 TEMPO SHRA  
LFRB 170700Z AUTO 23007KT 9999 BKN046 OVC058 17/13 Q1019 TEMPO SHRA 
LFRB 170630Z AUTO VRB03KT CAVOK 16/14 Q1019 TEMPO SHRA  
LFRB 170600Z AUTO 26004KT 230V290 9999 OVC049 16/14 Q1019 TEMPO SHRA
LFRB 170530Z AUTO 25005KT CAVOK 16/14 Q1019 TEMPO SHRA  
LFRB 170500Z AUTO 26003KT CAVOK 14/13 Q1018 TEMPO SHRA  
LFRB 170430Z AUTO 24004KT CAVOK 15/12 Q1018 TEMPO SHRA  
LFRB 170400Z AUTO 24003KT CAVOK 15/13 Q1018 TEMPO SHRA  
LFRB 170330Z AUTO 25004KT 9999 FEW024 OVC056 16/13 Q1018 TEMPO SHRA 
LFRB 170300Z AUTO 24005KT 9999 FEW049 OVC058 16/13 Q1018 TEMPO SHRA 
LFRB 170230Z AUTO 25004KT 9999 SCT045 OVC054 15/14 Q1018 TEMPO SHRA 
LFRB 170200Z AUTO 25003KT CAVOK 15/14 Q1018 TEMPO SHRA  
LFRB 170130Z AUTO 25004KT CAVOK 15/14 Q1018 TEMPO SHRA  
LFRB 170100Z AUTO 25002KT 9999 SCT044 OVC060 15/14 Q1018 TEMPO SHRA 
LFRB 170030Z AUTO 29004KT 260V320 9999 FEW026 SCT047 OVC054 15/14 Q1019 TEMPO SHRA  
LFRB 170000Z AUTO 28003KT CAVOK 14/13 Q1019 TEMPO SHRA  
LFRB 162330Z AUTO 28004KT CAVOK 13/13 Q1019 TEMPO SHRA  
LFRB 162300Z AUTO 26004KT CAVOK 14/13 Q1019 BECMG 33010KT   
LFRB 162230Z AUTO 26003KT CAVOK 15/13 Q1019 BECMG 33010KT   
LFRB 162200Z AUTO 26004KT CAVOK 16/13 Q1019 BECMG 33010KT   
LFRB 162130Z AUTO 27004KT CAVOK 16/13 Q1018 BECMG 33010KT   
LFRB 162100Z AUTO 27004KT CAVOK 16/13 Q1018 BECMG 33010KT   
LFRB 162030Z AUTO 28005KT 9999 BKN049 OVC056 17/13 Q1018 NOSIG  
LFRB 162000Z AUTO 29006KT 260V320 9999 OVC047 17/13 Q1018 NOSIG 
LFRB 161930Z AUTO 30005KT 270V330 9999 FEW025 BKN045 OVC062 18/13 Q1018 NOSIG   
LFRB 161900Z AUTO 31008KT 9999 OVC039 18/13 Q1017 NOSIG 
LFRB 161830Z AUTO 32007KT 300V360 9999 FEW022 OVC033 18/13 Q1017 NOSIG